Etusivu
METAR-TAF:

METAR-TAF

Lentoasemat :

Sogndal, Norja

Leveyspiiri: 61-09N, Pituuspiiri: 007-08E, korkeus merenpinnasta: 49 m

Tämänhetkinen sää

Tämä raportti tehtiin 20 minuuttia sitten, kello 11.50 UTC
Tuuli 15 kn lännestä/lounaasta
Lämpötila 6°C
Kosteus 75%
Ilmanpaine 1005 hPa
Näkyvyys 10 km tai enemmän
Muutamia pilviä 900 ft:n korkeudessa
Hajanaisia pilviä 2500 ft:n korkeudessa
sadekuuroja näköpiirissä

METAR: ENSG 231150Z 24015KT 9999 VCSH FEW009 SCT025 06/02 Q1005 RMK WIND 3806FT 28026KT

Aika: 14:10 (12:10 UTC)


TAF: puuttuu

Säähavainnot ja -ennusteet yli 4000 lentoasemalta (METAR- ja TAF-raportit).

Käytössä olevat sääasemat on merkitty karttaan keltaisilla ja punaisilla pisteillä.

Aseta hiiri pisteen päälle nähdäksesi sääaseman nimen.

Klikkaa sitten nähdäksesi säähavainnot ja -ennusteet.

Kartan vaihtaminen: klikkaa mustalla rastilla varustettuja vihreitä pisteitä, niin voit zoomata sisään; viivalla varustettua vihreää pistettä, niin voit zoomata ulos tai vihreitä nuolia, niin pääset viereisille kartoille.


METAR-TAF: